sensor_id;sensor_type;location;lat;lon;timestamp;P1;durP1;ratioP1;P2;durP2;ratioP2
3052;SDS011;1536;51.098;6.414;2023-03-19T00:00:07;2.20;;;1.90;;
3052;SDS011;1536;51.098;6.414;2023-03-19T00:02:35;2.77;;;2.30;;
3052;SDS011;1536;51.098;6.414;2023-03-19T00:05:02;2.90;;;2.13;;
3052;SDS011;1536;51.098;6.414;2023-03-19T00:07:31;3.17;;;2.50;;
3052;SDS011;1536;51.098;6.414;2023-03-19T00:09:58;3.47;;;2.13;;
3052;SDS011;1536;51.098;6.414;2023-03-19T00:12:25;2.47;;;2.10;;
3052;SDS011;1536;51.098;6.414;2023-03-19T00:14:52;4.70;;;1.97;;
3052;SDS011;1536;51.098;6.414;2023-03-19T00:17:18;3.10;;;2.10;;
3052;SDS011;1536;51.098;6.414;2023-03-19T00:19:45;3.20;;;2.30;;
3052;SDS011;1536;51.098;6.414;2023-03-19T00:22:12;3.57;;;2.00;;
3052;SDS011;1536;51.098;6.414;2023-03-19T00:24:40;3.27;;;2.57;;
3052;SDS011;1536;51.098;6.414;2023-03-19T00:27:07;3.53;;;1.90;;
3052;SDS011;1536;51.098;6.414;2023-03-19T00:29:34;2.50;;;2.03;;
3052;SDS011;1536;51.098;6.414;2023-03-19T00:32:01;2.77;;;1.90;;
3052;SDS011;1536;51.098;6.414;2023-03-19T00:34:28;4.07;;;2.50;;
3052;SDS011;1536;51.098;6.414;2023-03-19T00:36:55;2.20;;;1.97;;
3052;SDS011;1536;51.098;6.414;2023-03-19T00:39:21;3.00;;;2.20;;
3052;SDS011;1536;51.098;6.414;2023-03-19T00:41:50;2.50;;;1.73;;
3052;SDS011;1536;51.098;6.414;2023-03-19T00:44:16;3.80;;;2.50;;
3052;SDS011;1536;51.098;6.414;2023-03-19T00:46:43;3.73;;;2.37;;
3052;SDS011;1536;51.098;6.414;2023-03-19T00:49:10;2.23;;;2.03;;
3052;SDS011;1536;51.098;6.414;2023-03-19T00:51:37;3.73;;;2.40;;
3052;SDS011;1536;51.098;6.414;2023-03-19T00:54:07;2.60;;;2.40;;
3052;SDS011;1536;51.098;6.414;2023-03-19T00:56:35;3.43;;;2.23;;
3052;SDS011;1536;51.098;6.414;2023-03-19T00:59:03;3.80;;;2.47;;
3052;SDS011;1536;51.098;6.414;2023-03-19T01:01:30;3.20;;;1.70;;
3052;SDS011;1536;51.098;6.414;2023-03-19T01:03:57;5.33;;;2.63;;
3052;SDS011;1536;51.098;6.414;2023-03-19T01:06:24;2.73;;;2.03;;
3052;SDS011;1536;51.098;6.414;2023-03-19T01:08:51;5.77;;;2.63;;
3052;SDS011;1536;51.098;6.414;2023-03-19T01:11:18;5.27;;;2.17;;
3052;SDS011;1536;51.098;6.414;2023-03-19T01:13:44;6.03;;;2.13;;
3052;SDS011;1536;51.098;6.414;2023-03-19T01:16:13;10.93;;;2.10;;
3052;SDS011;1536;51.098;6.414;2023-03-19T01:18:40;6.40;;;2.90;;
3052;SDS011;1536;51.098;6.414;2023-03-19T01:21:06;9.00;;;2.00;;
3052;SDS011;1536;51.098;6.414;2023-03-19T01:23:34;4.67;;;2.00;;
3052;SDS011;1536;51.098;6.414;2023-03-19T01:26:01;10.10;;;2.00;;
3052;SDS011;1536;51.098;6.414;2023-03-19T01:28:28;5.67;;;2.47;;
3052;SDS011;1536;51.098;6.414;2023-03-19T01:30:57;3.87;;;2.00;;
3052;SDS011;1536;51.098;6.414;2023-03-19T01:33:26;5.27;;;2.30;;
3052;SDS011;1536;51.098;6.414;2023-03-19T01:35:53;6.93;;;2.30;;
3052;SDS011;1536;51.098;6.414;2023-03-19T01:38:21;6.50;;;2.53;;
3052;SDS011;1536;51.098;6.414;2023-03-19T01:40:49;5.03;;;3.13;;
3052;SDS011;1536;51.098;6.414;2023-03-19T01:43:17;5.00;;;2.20;;
3052;SDS011;1536;51.098;6.414;2023-03-19T01:45:45;5.20;;;2.73;;
3052;SDS011;1536;51.098;6.414;2023-03-19T01:48:22;3.73;;;3.17;;
3052;SDS011;1536;51.098;6.414;2023-03-19T01:50:57;6.10;;;2.50;;
3052;SDS011;1536;51.098;6.414;2023-03-19T01:53:26;5.20;;;2.77;;
3052;SDS011;1536;51.098;6.414;2023-03-19T01:55:56;4.63;;;2.40;;
3052;SDS011;1536;51.098;6.414;2023-03-19T01:58:25;5.10;;;2.50;;
3052;SDS011;1536;51.098;6.414;2023-03-19T02:00:52;4.87;;;2.47;;
3052;SDS011;1536;51.098;6.414;2023-03-19T02:03:20;5.00;;;2.70;;
3052;SDS011;1536;51.098;6.414;2023-03-19T02:05:49;5.57;;;2.73;;
3052;SDS011;1536;51.098;6.414;2023-03-19T02:08:18;2.90;;;2.60;;
3052;SDS011;1536;51.098;6.414;2023-03-19T02:10:46;4.00;;;3.30;;
3052;SDS011;1536;51.098;6.414;2023-03-19T02:13:14;4.40;;;2.67;;
3052;SDS011;1536;51.098;6.414;2023-03-19T02:15:41;6.73;;;2.93;;
3052;SDS011;1536;51.098;6.414;2023-03-19T02:18:08;4.37;;;2.93;;
3052;SDS011;1536;51.098;6.414;2023-03-19T02:20:36;6.10;;;2.47;;
3052;SDS011;1536;51.098;6.414;2023-03-19T02:23:12;3.20;;;2.87;;
3052;SDS011;1536;51.098;6.414;2023-03-19T02:28:36;4.00;;;3.30;;
3052;SDS011;1536;51.098;6.414;2023-03-19T02:31:06;3.97;;;2.77;;
3052;SDS011;1536;51.098;6.414;2023-03-19T02:33:33;6.60;;;3.37;;
3052;SDS011;1536;51.098;6.414;2023-03-19T02:36:00;5.60;;;3.50;;
3052;SDS011;1536;51.098;6.414;2023-03-19T02:38:28;5.00;;;3.30;;
3052;SDS011;1536;51.098;6.414;2023-03-19T02:40:58;3.73;;;3.33;;
3052;SDS011;1536;51.098;6.414;2023-03-19T02:43:29;6.50;;;3.33;;
3052;SDS011;1536;51.098;6.414;2023-03-19T02:45:57;8.13;;;2.97;;
3052;SDS011;1536;51.098;6.414;2023-03-19T02:48:25;5.20;;;3.67;;
3052;SDS011;1536;51.098;6.414;2023-03-19T02:50:52;4.83;;;2.90;;
3052;SDS011;1536;51.098;6.414;2023-03-19T02:53:18;5.20;;;3.03;;
3052;SDS011;1536;51.098;6.414;2023-03-19T02:55:45;4.80;;;2.70;;
3052;SDS011;1536;51.098;6.414;2023-03-19T02:58:12;4.27;;;2.93;;
3052;SDS011;1536;51.098;6.414;2023-03-19T03:00:40;5.87;;;3.10;;
3052;SDS011;1536;51.098;6.414;2023-03-19T03:03:07;5.37;;;2.90;;
3052;SDS011;1536;51.098;6.414;2023-03-19T03:05:33;9.07;;;3.13;;
3052;SDS011;1536;51.098;6.414;2023-03-19T03:08:01;3.43;;;2.60;;
3052;SDS011;1536;51.098;6.414;2023-03-19T03:10:28;2.53;;;2.30;;
3052;SDS011;1536;51.098;6.414;2023-03-19T03:12:55;7.53;;;2.60;;
3052;SDS011;1536;51.098;6.414;2023-03-19T03:15:22;2.97;;;2.40;;
3052;SDS011;1536;51.098;6.414;2023-03-19T03:17:50;10.63;;;2.80;;
3052;SDS011;1536;51.098;6.414;2023-03-19T03:20:17;3.10;;;2.50;;
3052;SDS011;1536;51.098;6.414;2023-03-19T03:22:45;3.23;;;2.40;;
3052;SDS011;1536;51.098;6.414;2023-03-19T03:25:12;3.40;;;2.43;;
3052;SDS011;1536;51.098;6.414;2023-03-19T03:27:39;2.77;;;2.30;;
3052;SDS011;1536;51.098;6.414;2023-03-19T03:30:07;4.33;;;2.70;;
3052;SDS011;1536;51.098;6.414;2023-03-19T03:32:34;3.40;;;2.67;;
3052;SDS011;1536;51.098;6.414;2023-03-19T03:35:03;4.70;;;2.90;;
3052;SDS011;1536;51.098;6.414;2023-03-19T03:37:32;3.77;;;2.40;;
3052;SDS011;1536;51.098;6.414;2023-03-19T03:39:58;6.93;;;2.77;;
3052;SDS011;1536;51.098;6.414;2023-03-19T03:42:30;3.03;;;2.50;;
3052;SDS011;1536;51.098;6.414;2023-03-19T03:44:57;2.97;;;2.50;;
3052;SDS011;1536;51.098;6.414;2023-03-19T03:47:24;3.30;;;3.00;;
3052;SDS011;1536;51.098;6.414;2023-03-19T03:49:51;3.13;;;2.80;;
3052;SDS011;1536;51.098;6.414;2023-03-19T03:52:19;3.83;;;2.90;;
3052;SDS011;1536;51.098;6.414;2023-03-19T03:54:46;3.57;;;2.57;;
3052;SDS011;1536;51.098;6.414;2023-03-19T03:57:13;4.30;;;2.53;;
3052;SDS011;1536;51.098;6.414;2023-03-19T03:59:39;3.20;;;2.37;;
3052;SDS011;1536;51.098;6.414;2023-03-19T04:02:06;3.67;;;2.23;;
3052;SDS011;1536;51.098;6.414;2023-03-19T04:04:33;4.37;;;3.17;;
3052;SDS011;1536;51.098;6.414;2023-03-19T04:07:00;2.90;;;2.13;;
3052;SDS011;1536;51.098;6.414;2023-03-19T04:09:28;3.80;;;2.60;;
3052;SDS011;1536;51.098;6.414;2023-03-19T04:11:55;5.07;;;2.67;;
3052;SDS011;1536;51.098;6.414;2023-03-19T04:14:21;3.63;;;2.10;;
3052;SDS011;1536;51.098;6.414;2023-03-19T04:16:48;3.93;;;2.53;;
3052;SDS011;1536;51.098;6.414;2023-03-19T04:19:16;3.10;;;2.43;;
3052;SDS011;1536;51.098;6.414;2023-03-19T04:21:43;2.90;;;2.70;;
3052;SDS011;1536;51.098;6.414;2023-03-19T04:24:09;2.50;;;2.30;;
3052;SDS011;1536;51.098;6.414;2023-03-19T04:26:37;3.60;;;2.57;;
3052;SDS011;1536;51.098;6.414;2023-03-19T04:29:05;3.00;;;2.60;;
3052;SDS011;1536;51.098;6.414;2023-03-19T04:31:32;4.53;;;2.40;;
3052;SDS011;1536;51.098;6.414;2023-03-19T04:33:59;3.10;;;2.80;;
3052;SDS011;1536;51.098;6.414;2023-03-19T04:36:25;2.87;;;2.57;;
3052;SDS011;1536;51.098;6.414;2023-03-19T04:38:52;2.70;;;2.37;;
3052;SDS011;1536;51.098;6.414;2023-03-19T04:41:19;4.37;;;2.20;;
3052;SDS011;1536;51.098;6.414;2023-03-19T04:43:47;3.07;;;2.77;;
3052;SDS011;1536;51.098;6.414;2023-03-19T04:46:14;5.20;;;3.07;;
3052;SDS011;1536;51.098;6.414;2023-03-19T04:48:41;2.73;;;2.53;;
3052;SDS011;1536;51.098;6.414;2023-03-19T04:51:09;4.63;;;2.70;;
3052;SDS011;1536;51.098;6.414;2023-03-19T04:53:36;6.37;;;3.43;;
3052;SDS011;1536;51.098;6.414;2023-03-19T04:56:04;3.50;;;3.20;;
3052;SDS011;1536;51.098;6.414;2023-03-19T04:58:31;4.27;;;3.10;;
3052;SDS011;1536;51.098;6.414;2023-03-19T05:01:00;4.13;;;3.50;;
3052;SDS011;1536;51.098;6.414;2023-03-19T05:03:27;3.87;;;2.90;;
3052;SDS011;1536;51.098;6.414;2023-03-19T05:05:55;5.70;;;3.33;;
3052;SDS011;1536;51.098;6.414;2023-03-19T05:08:21;5.83;;;3.57;;
3052;SDS011;1536;51.098;6.414;2023-03-19T05:10:48;4.33;;;3.03;;
3052;SDS011;1536;51.098;6.414;2023-03-19T05:13:15;3.33;;;2.97;;
3052;SDS011;1536;51.098;6.414;2023-03-19T05:15:42;5.10;;;3.57;;
3052;SDS011;1536;51.098;6.414;2023-03-19T05:18:11;3.80;;;3.10;;
3052;SDS011;1536;51.098;6.414;2023-03-19T05:20:38;3.37;;;3.00;;
3052;SDS011;1536;51.098;6.414;2023-03-19T05:23:06;3.50;;;3.17;;
3052;SDS011;1536;51.098;6.414;2023-03-19T05:25:33;4.03;;;2.90;;
3052;SDS011;1536;51.098;6.414;2023-03-19T05:28:00;3.87;;;2.87;;
3052;SDS011;1536;51.098;6.414;2023-03-19T05:30:27;3.87;;;3.47;;
3052;SDS011;1536;51.098;6.414;2023-03-19T05:32:54;3.20;;;2.90;;
3052;SDS011;1536;51.098;6.414;2023-03-19T05:35:23;3.80;;;3.50;;
3052;SDS011;1536;51.098;6.414;2023-03-19T05:37:49;3.40;;;3.07;;
3052;SDS011;1536;51.098;6.414;2023-03-19T05:40:16;3.10;;;2.83;;
3052;SDS011;1536;51.098;6.414;2023-03-19T05:42:43;5.53;;;3.60;;
3052;SDS011;1536;51.098;6.414;2023-03-19T05:45:10;3.50;;;2.77;;
3052;SDS011;1536;51.098;6.414;2023-03-19T05:47:38;3.33;;;3.03;;
3052;SDS011;1536;51.098;6.414;2023-03-19T05:50:05;4.80;;;3.53;;
3052;SDS011;1536;51.098;6.414;2023-03-19T05:52:34;3.50;;;3.03;;
3052;SDS011;1536;51.098;6.414;2023-03-19T05:55:01;5.00;;;3.40;;
3052;SDS011;1536;51.098;6.414;2023-03-19T05:57:28;3.97;;;3.60;;
3052;SDS011;1536;51.098;6.414;2023-03-19T05:59:55;4.50;;;3.50;;
3052;SDS011;1536;51.098;6.414;2023-03-19T06:02:22;3.50;;;3.20;;
3052;SDS011;1536;51.098;6.414;2023-03-19T06:04:49;5.53;;;3.70;;
3052;SDS011;1536;51.098;6.414;2023-03-19T06:07:15;5.00;;;3.77;;
3052;SDS011;1536;51.098;6.414;2023-03-19T06:09:44;5.37;;;3.73;;
3052;SDS011;1536;51.098;6.414;2023-03-19T06:12:10;5.30;;;3.50;;
3052;SDS011;1536;51.098;6.414;2023-03-19T06:14:37;3.60;;;3.30;;
3052;SDS011;1536;51.098;6.414;2023-03-19T06:17:04;4.07;;;3.60;;
3052;SDS011;1536;51.098;6.414;2023-03-19T06:19:31;4.30;;;3.60;;
3052;SDS011;1536;51.098;6.414;2023-03-19T06:21:58;3.70;;;3.40;;
3052;SDS011;1536;51.098;6.414;2023-03-19T06:24:24;4.50;;;4.10;;
3052;SDS011;1536;51.098;6.414;2023-03-19T06:26:55;4.20;;;3.57;;
3052;SDS011;1536;51.098;6.414;2023-03-19T06:29:22;4.87;;;3.53;;
3052;SDS011;1536;51.098;6.414;2023-03-19T06:31:49;3.57;;;3.33;;
3052;SDS011;1536;51.098;6.414;2023-03-19T06:34:16;5.33;;;3.83;;
3052;SDS011;1536;51.098;6.414;2023-03-19T06:36:43;7.00;;;3.87;;
3052;SDS011;1536;51.098;6.414;2023-03-19T06:39:10;5.27;;;4.23;;
3052;SDS011;1536;51.098;6.414;2023-03-19T06:41:36;4.63;;;3.77;;
3052;SDS011;1536;51.098;6.414;2023-03-19T06:44:04;4.17;;;3.77;;
3052;SDS011;1536;51.098;6.414;2023-03-19T06:46:31;3.93;;;3.53;;
3052;SDS011;1536;51.098;6.414;2023-03-19T06:48:58;5.07;;;3.27;;
3052;SDS011;1536;51.098;6.414;2023-03-19T06:51:25;3.60;;;3.30;;
3052;SDS011;1536;51.098;6.414;2023-03-19T06:53:52;4.10;;;3.80;;
3052;SDS011;1536;51.098;6.414;2023-03-19T06:56:19;3.80;;;3.47;;
3052;SDS011;1536;51.098;6.414;2023-03-19T06:58:46;4.60;;;4.20;;
3052;SDS011;1536;51.098;6.414;2023-03-19T07:01:14;4.00;;;3.63;;
3052;SDS011;1536;51.098;6.414;2023-03-19T07:03:41;4.67;;;4.17;;
3052;SDS011;1536;51.098;6.414;2023-03-19T07:06:07;6.40;;;4.27;;
3052;SDS011;1536;51.098;6.414;2023-03-19T07:08:34;5.20;;;4.70;;
3052;SDS011;1536;51.098;6.414;2023-03-19T07:11:02;5.03;;;4.53;;
3052;SDS011;1536;51.098;6.414;2023-03-19T07:13:29;4.80;;;4.40;;
3052;SDS011;1536;51.098;6.414;2023-03-19T07:15:57;4.97;;;4.57;;
3052;SDS011;1536;51.098;6.414;2023-03-19T07:18:25;4.40;;;4.00;;
3052;SDS011;1536;51.098;6.414;2023-03-19T07:20:52;5.60;;;5.10;;
3052;SDS011;1536;51.098;6.414;2023-03-19T07:23:19;5.80;;;5.30;;
3052;SDS011;1536;51.098;6.414;2023-03-19T07:25:45;6.47;;;5.87;;
3052;SDS011;1536;51.098;6.414;2023-03-19T07:28:12;6.23;;;5.37;;
3052;SDS011;1536;51.098;6.414;2023-03-19T07:30:39;6.23;;;5.03;;
3052;SDS011;1536;51.098;6.414;2023-03-19T07:33:06;4.70;;;4.23;;
3052;SDS011;1536;51.098;6.414;2023-03-19T07:35:34;5.03;;;4.63;;
3052;SDS011;1536;51.098;6.414;2023-03-19T07:38:01;4.83;;;4.43;;
3052;SDS011;1536;51.098;6.414;2023-03-19T07:40:28;5.90;;;5.30;;
3052;SDS011;1536;51.098;6.414;2023-03-19T07:42:55;5.17;;;4.70;;
3052;SDS011;1536;51.098;6.414;2023-03-19T07:45:22;5.00;;;4.50;;
3052;SDS011;1536;51.098;6.414;2023-03-19T07:47:48;5.87;;;5.37;;
3052;SDS011;1536;51.098;6.414;2023-03-19T07:50:15;5.30;;;4.90;;
3052;SDS011;1536;51.098;6.414;2023-03-19T07:52:45;5.50;;;5.10;;
3052;SDS011;1536;51.098;6.414;2023-03-19T07:55:12;6.33;;;5.80;;
3052;SDS011;1536;51.098;6.414;2023-03-19T07:57:39;5.37;;;4.97;;
3052;SDS011;1536;51.098;6.414;2023-03-19T08:00:06;4.53;;;4.13;;
3052;SDS011;1536;51.098;6.414;2023-03-19T08:02:34;4.90;;;4.50;;
3052;SDS011;1536;51.098;6.414;2023-03-19T08:05:01;5.53;;;5.03;;
3052;SDS011;1536;51.098;6.414;2023-03-19T08:07:28;4.80;;;4.40;;
3052;SDS011;1536;51.098;6.414;2023-03-19T08:09:56;5.23;;;4.73;;
3052;SDS011;1536;51.098;6.414;2023-03-19T08:12:23;6.23;;;4.40;;
3052;SDS011;1536;51.098;6.414;2023-03-19T08:14:50;6.00;;;4.47;;
3052;SDS011;1536;51.098;6.414;2023-03-19T08:17:17;5.37;;;4.60;;
3052;SDS011;1536;51.098;6.414;2023-03-19T08:19:44;4.43;;;4.00;;
3052;SDS011;1536;51.098;6.414;2023-03-19T08:22:10;5.10;;;4.60;;
3052;SDS011;1536;51.098;6.414;2023-03-19T08:24:37;5.70;;;5.20;;
3052;SDS011;1536;51.098;6.414;2023-03-19T08:27:05;5.17;;;4.70;;
3052;SDS011;1536;51.098;6.414;2023-03-19T08:29:32;5.33;;;4.93;;
3052;SDS011;1536;51.098;6.414;2023-03-19T08:31:59;4.77;;;4.40;;
3052;SDS011;1536;51.098;6.414;2023-03-19T08:34:26;4.87;;;4.47;;
3052;SDS011;1536;51.098;6.414;2023-03-19T08:36:53;4.37;;;4.03;;
3052;SDS011;1536;51.098;6.414;2023-03-19T08:39:19;4.67;;;4.27;;
3052;SDS011;1536;51.098;6.414;2023-03-19T08:41:46;4.80;;;4.40;;
3052;SDS011;1536;51.098;6.414;2023-03-19T08:44:14;4.10;;;3.70;;
3052;SDS011;1536;51.098;6.414;2023-03-19T08:46:41;4.97;;;4.47;;
3052;SDS011;1536;51.098;6.414;2023-03-19T08:49:08;5.13;;;4.10;;
3052;SDS011;1536;51.098;6.414;2023-03-19T08:51:35;6.63;;;4.30;;
3052;SDS011;1536;51.098;6.414;2023-03-19T08:54:02;5.37;;;4.27;;
3052;SDS011;1536;51.098;6.414;2023-03-19T08:56:29;4.43;;;4.10;;
3052;SDS011;1536;51.098;6.414;2023-03-19T08:58:55;4.57;;;4.17;;
3052;SDS011;1536;51.098;6.414;2023-03-19T09:01:24;4.17;;;3.77;;
3052;SDS011;1536;51.098;6.414;2023-03-19T09:03:50;4.20;;;3.90;;
3052;SDS011;1536;51.098;6.414;2023-03-19T09:06:17;4.60;;;4.20;;
3052;SDS011;1536;51.098;6.414;2023-03-19T09:08:44;4.10;;;3.80;;
3052;SDS011;1536;51.098;6.414;2023-03-19T09:11:11;5.00;;;4.50;;
3052;SDS011;1536;51.098;6.414;2023-03-19T09:13:38;5.37;;;4.93;;
3052;SDS011;1536;51.098;6.414;2023-03-19T09:16:05;5.60;;;5.10;;
3052;SDS011;1536;51.098;6.414;2023-03-19T09:18:34;5.87;;;5.37;;
3052;SDS011;1536;51.098;6.414;2023-03-19T09:21:01;4.63;;;4.23;;
3052;SDS011;1536;51.098;6.414;2023-03-19T09:23:28;4.90;;;4.50;;
3052;SDS011;1536;51.098;6.414;2023-03-19T09:25:54;4.23;;;3.83;;
3052;SDS011;1536;51.098;6.414;2023-03-19T09:28:21;4.37;;;3.97;;
3052;SDS011;1536;51.098;6.414;2023-03-19T09:30:48;4.60;;;3.90;;
3052;SDS011;1536;51.098;6.414;2023-03-19T09:33:16;5.47;;;4.37;;
3052;SDS011;1536;51.098;6.414;2023-03-19T09:35:49;5.37;;;4.90;;
3052;SDS011;1536;51.098;6.414;2023-03-19T09:38:16;5.03;;;4.27;;
3052;SDS011;1536;51.098;6.414;2023-03-19T09:40:44;5.00;;;4.20;;
3052;SDS011;1536;51.098;6.414;2023-03-19T09:43:19;5.00;;;4.40;;
3052;SDS011;1536;51.098;6.414;2023-03-19T09:45:58;5.07;;;4.60;;
3052;SDS011;1536;51.098;6.414;2023-03-19T09:48:30;4.90;;;4.40;;
3052;SDS011;1536;51.098;6.414;2023-03-19T09:51:02;6.90;;;4.87;;
3052;SDS011;1536;51.098;6.414;2023-03-19T09:53:35;4.70;;;4.30;;
3052;SDS011;1536;51.098;6.414;2023-03-19T09:56:10;4.70;;;4.30;;
3052;SDS011;1536;51.098;6.414;2023-03-19T09:58:40;5.23;;;4.80;;
3052;SDS011;1536;51.098;6.414;2023-03-19T10:01:10;4.60;;;4.20;;
3052;SDS011;1536;51.098;6.414;2023-03-19T10:03:51;4.90;;;4.50;;
3052;SDS011;1536;51.098;6.414;2023-03-19T10:06:37;5.53;;;5.03;;
3052;SDS011;1536;51.098;6.414;2023-03-19T10:09:18;6.20;;;5.60;;
3052;SDS011;1536;51.098;6.414;2023-03-19T10:11:59;5.70;;;4.90;;
3052;SDS011;1536;51.098;6.414;2023-03-19T10:14:56;5.83;;;5.33;;
3052;SDS011;1536;51.098;6.414;2023-03-19T10:17:41;6.93;;;4.73;;
3052;SDS011;1536;51.098;6.414;2023-03-19T10:20:16;4.83;;;4.43;;
3052;SDS011;1536;51.098;6.414;2023-03-19T10:22:52;5.73;;;4.40;;
3052;SDS011;1536;51.098;6.414;2023-03-19T10:25:26;5.07;;;4.67;;
3052;SDS011;1536;51.098;6.414;2023-03-19T10:27:58;5.10;;;4.60;;
3052;SDS011;1536;51.098;6.414;2023-03-19T10:30:30;4.83;;;4.43;;
3052;SDS011;1536;51.098;6.414;2023-03-19T10:33:01;4.90;;;3.80;;
3052;SDS011;1536;51.098;6.414;2023-03-19T10:35:39;3.83;;;3.50;;
3052;SDS011;1536;51.098;6.414;2023-03-19T10:38:15;4.80;;;4.30;;
3052;SDS011;1536;51.098;6.414;2023-03-19T10:40:47;5.23;;;4.70;;
3052;SDS011;1536;51.098;6.414;2023-03-19T10:43:23;5.33;;;4.83;;
3052;SDS011;1536;51.098;6.414;2023-03-19T10:45:50;6.77;;;5.30;;
3052;SDS011;1536;51.098;6.414;2023-03-19T10:48:18;5.40;;;4.67;;
3052;SDS011;1536;51.098;6.414;2023-03-19T10:50:46;5.87;;;5.37;;
3052;SDS011;1536;51.098;6.414;2023-03-19T10:53:26;5.80;;;5.30;;
3052;SDS011;1536;51.098;6.414;2023-03-19T10:56:00;5.57;;;5.07;;
3052;SDS011;1536;51.098;6.414;2023-03-19T10:58:29;7.10;;;5.60;;
3052;SDS011;1536;51.098;6.414;2023-03-19T11:00:58;6.03;;;5.20;;
3052;SDS011;1536;51.098;6.414;2023-03-19T11:03:30;6.00;;;5.40;;
3052;SDS011;1536;51.098;6.414;2023-03-19T11:06:05;6.73;;;6.03;;
3052;SDS011;1536;51.098;6.414;2023-03-19T11:08:48;6.90;;;6.20;;
3052;SDS011;1536;51.098;6.414;2023-03-19T11:11:22;5.67;;;5.03;;
3052;SDS011;1536;51.098;6.414;2023-03-19T11:13:51;8.67;;;6.33;;
3052;SDS011;1536;51.098;6.414;2023-03-19T11:16:18;6.40;;;5.63;;
3052;SDS011;1536;51.098;6.414;2023-03-19T11:18:46;6.37;;;5.77;;
3052;SDS011;1536;51.098;6.414;2023-03-19T11:21:21;6.43;;;5.80;;
3052;SDS011;1536;51.098;6.414;2023-03-19T11:23:58;6.00;;;4.47;;
3052;SDS011;1536;51.098;6.414;2023-03-19T11:26:26;6.10;;;5.20;;
3052;SDS011;1536;51.098;6.414;2023-03-19T11:28:54;6.57;;;5.50;;
3052;SDS011;1536;51.098;6.414;2023-03-19T11:31:29;5.00;;;4.60;;
3052;SDS011;1536;51.098;6.414;2023-03-19T11:34:07;5.43;;;4.50;;
3052;SDS011;1536;51.098;6.414;2023-03-19T11:36:48;4.67;;;4.27;;
3052;SDS011;1536;51.098;6.414;2023-03-19T11:39:25;4.53;;;3.90;;
3052;SDS011;1536;51.098;6.414;2023-03-19T11:42:08;7.70;;;4.93;;
3052;SDS011;1536;51.098;6.414;2023-03-19T11:44:52;5.20;;;4.60;;
3052;SDS011;1536;51.098;6.414;2023-03-19T11:47:29;4.30;;;3.90;;
3052;SDS011;1536;51.098;6.414;2023-03-19T11:52:57;6.07;;;4.67;;
3052;SDS011;1536;51.098;6.414;2023-03-19T11:55:32;4.77;;;4.27;;
3052;SDS011;1536;51.098;6.414;2023-03-19T11:58:19;5.37;;;4.87;;
3052;SDS011;1536;51.098;6.414;2023-03-19T12:00:55;4.30;;;3.90;;
3052;SDS011;1536;51.098;6.414;2023-03-19T12:03:36;5.30;;;3.30;;
3052;SDS011;1536;51.098;6.414;2023-03-19T12:06:29;4.80;;;3.90;;
3052;SDS011;1536;51.098;6.414;2023-03-19T12:09:08;5.20;;;4.60;;
3052;SDS011;1536;51.098;6.414;2023-03-19T12:11:44;5.90;;;4.30;;
3052;SDS011;1536;51.098;6.414;2023-03-19T12:14:20;5.27;;;4.77;;
3052;SDS011;1536;51.098;6.414;2023-03-19T12:17:02;4.57;;;3.73;;
3052;SDS011;1536;51.098;6.414;2023-03-19T12:19:54;3.60;;;3.30;;
3052;SDS011;1536;51.098;6.414;2023-03-19T12:22:44;5.47;;;4.03;;
3052;SDS011;1536;51.098;6.414;2023-03-19T12:25:21;4.13;;;3.73;;
3052;SDS011;1536;51.098;6.414;2023-03-19T12:27:56;4.77;;;4.33;;
3052;SDS011;1536;51.098;6.414;2023-03-19T12:30:31;6.00;;;5.17;;
3052;SDS011;1536;51.098;6.414;2023-03-19T12:33:08;7.23;;;5.40;;
3052;SDS011;1536;51.098;6.414;2023-03-19T12:35:40;6.50;;;5.77;;
3052;SDS011;1536;51.098;6.414;2023-03-19T12:38:09;6.80;;;5.27;;
3052;SDS011;1536;51.098;6.414;2023-03-19T12:40:39;8.20;;;5.73;;
3052;SDS011;1536;51.098;6.414;2023-03-19T12:43:16;5.77;;;5.20;;
3052;SDS011;1536;51.098;6.414;2023-03-19T12:45:45;9.13;;;6.40;;
3052;SDS011;1536;51.098;6.414;2023-03-19T12:48:16;9.70;;;5.97;;
3052;SDS011;1536;51.098;6.414;2023-03-19T12:50:47;7.60;;;6.77;;
3052;SDS011;1536;51.098;6.414;2023-03-19T12:53:21;6.80;;;5.83;;
3052;SDS011;1536;51.098;6.414;2023-03-19T12:55:56;7.47;;;6.73;;
3052;SDS011;1536;51.098;6.414;2023-03-19T12:58:32;6.93;;;6.17;;
3052;SDS011;1536;51.098;6.414;2023-03-19T13:01:08;7.37;;;6.67;;
3052;SDS011;1536;51.098;6.414;2023-03-19T13:03:40;8.07;;;6.60;;
3052;SDS011;1536;51.098;6.414;2023-03-19T13:06:14;7.37;;;6.40;;
3052;SDS011;1536;51.098;6.414;2023-03-19T13:08:46;5.90;;;5.40;;
3052;SDS011;1536;51.098;6.414;2023-03-19T13:11:19;6.60;;;5.50;;
3052;SDS011;1536;51.098;6.414;2023-03-19T13:13:52;5.87;;;5.30;;
3052;SDS011;1536;51.098;6.414;2023-03-19T13:16:32;5.90;;;5.00;;
3052;SDS011;1536;51.098;6.414;2023-03-19T13:19:10;6.37;;;5.70;;
3052;SDS011;1536;51.098;6.414;2023-03-19T13:21:43;6.47;;;5.87;;
3052;SDS011;1536;51.098;6.414;2023-03-19T13:24:14;6.70;;;6.10;;
3052;SDS011;1536;51.098;6.414;2023-03-19T13:26:46;5.93;;;5.27;;
3052;SDS011;1536;51.098;6.414;2023-03-19T13:29:17;5.80;;;5.20;;
3052;SDS011;1536;51.098;6.414;2023-03-19T13:31:46;4.90;;;4.47;;
3052;SDS011;1536;51.098;6.414;2023-03-19T13:34:17;5.60;;;5.10;;
3052;SDS011;1536;51.098;6.414;2023-03-19T13:36:52;5.47;;;4.97;;
3052;SDS011;1536;51.098;6.414;2023-03-19T13:39:24;4.93;;;4.50;;
3052;SDS011;1536;51.098;6.414;2023-03-19T13:42:05;4.90;;;4.50;;
3052;SDS011;1536;51.098;6.414;2023-03-19T13:44:48;4.73;;;3.87;;
3052;SDS011;1536;51.098;6.414;2023-03-19T13:50:10;4.13;;;3.73;;
3052;SDS011;1536;51.098;6.414;2023-03-19T13:52:51;2.97;;;2.60;;
3052;SDS011;1536;51.098;6.414;2023-03-19T13:55:29;3.50;;;3.20;;
3052;SDS011;1536;51.098;6.414;2023-03-19T13:58:04;4.20;;;3.60;;
3052;SDS011;1536;51.098;6.414;2023-03-19T14:01:03;8.10;;;4.00;;
3052;SDS011;1536;51.098;6.414;2023-03-19T14:03:31;6.10;;;4.47;;
3052;SDS011;1536;51.098;6.414;2023-03-19T14:05:59;4.80;;;4.40;;
3052;SDS011;1536;51.098;6.414;2023-03-19T14:08:27;4.23;;;3.93;;
3052;SDS011;1536;51.098;6.414;2023-03-19T14:11:00;5.47;;;4.63;;
3052;SDS011;1536;51.098;6.414;2023-03-19T14:13:31;5.10;;;4.60;;
3052;SDS011;1536;51.098;6.414;2023-03-19T14:16:05;5.33;;;4.90;;
3052;SDS011;1536;51.098;6.414;2023-03-19T14:18:41;4.60;;;4.20;;
3052;SDS011;1536;51.098;6.414;2023-03-19T14:21:09;4.70;;;4.30;;
3052;SDS011;1536;51.098;6.414;2023-03-19T14:23:39;5.10;;;4.70;;
3052;SDS011;1536;51.098;6.414;2023-03-19T14:26:16;6.00;;;4.93;;
3052;SDS011;1536;51.098;6.414;2023-03-19T14:28:45;5.20;;;4.77;;
3052;SDS011;1536;51.098;6.414;2023-03-19T14:31:33;5.33;;;4.83;;
3052;SDS011;1536;51.098;6.414;2023-03-19T14:34:12;5.20;;;4.80;;
3052;SDS011;1536;51.098;6.414;2023-03-19T14:36:46;5.60;;;4.97;;
3052;SDS011;1536;51.098;6.414;2023-03-19T14:39:19;4.90;;;4.40;;
3052;SDS011;1536;51.098;6.414;2023-03-19T14:41:49;4.83;;;4.43;;
3052;SDS011;1536;51.098;6.414;2023-03-19T14:44:35;5.10;;;4.60;;
3052;SDS011;1536;51.098;6.414;2023-03-19T14:47:27;3.53;;;3.23;;
3052;SDS011;1536;51.098;6.414;2023-03-19T14:50:23;3.20;;;2.50;;
3052;SDS011;1536;51.098;6.414;2023-03-19T14:53:09;4.80;;;2.17;;
3052;SDS011;1536;51.098;6.414;2023-03-19T14:55:39;2.30;;;2.10;;
3052;SDS011;1536;51.098;6.414;2023-03-19T14:58:08;2.10;;;1.90;;
3052;SDS011;1536;51.098;6.414;2023-03-19T15:00:37;2.30;;;1.90;;
3052;SDS011;1536;51.098;6.414;2023-03-19T15:03:13;1.70;;;1.53;;
3052;SDS011;1536;51.098;6.414;2023-03-19T15:05:46;2.37;;;2.10;;
3052;SDS011;1536;51.098;6.414;2023-03-19T15:08:16;2.67;;;2.10;;
3052;SDS011;1536;51.098;6.414;2023-03-19T15:10:55;1.93;;;1.83;;
3052;SDS011;1536;51.098;6.414;2023-03-19T15:13:36;2.60;;;2.13;;
3052;SDS011;1536;51.098;6.414;2023-03-19T15:16:30;2.97;;;2.70;;
3052;SDS011;1536;51.098;6.414;2023-03-19T15:19:06;2.77;;;2.57;;
3052;SDS011;1536;51.098;6.414;2023-03-19T15:21:35;2.80;;;2.50;;
3052;SDS011;1536;51.098;6.414;2023-03-19T15:24:02;4.20;;;3.00;;
3052;SDS011;1536;51.098;6.414;2023-03-19T15:26:31;3.37;;;3.07;;
3052;SDS011;1536;51.098;6.414;2023-03-19T15:29:00;3.40;;;3.10;;
3052;SDS011;1536;51.098;6.414;2023-03-19T15:31:40;4.70;;;4.30;;
3052;SDS011;1536;51.098;6.414;2023-03-19T15:34:17;34.23;;;29.83;;
3052;SDS011;1536;51.098;6.414;2023-03-19T15:36:45;40.40;;;33.47;;
3052;SDS011;1536;51.098;6.414;2023-03-19T15:39:17;16.60;;;14.20;;
3052;SDS011;1536;51.098;6.414;2023-03-19T15:41:46;8.10;;;5.90;;